Language selection

My Weather Profile Weather Topics  | 

Western Lake Superior: Past 24 Hour Conditions

 

Pukaskwa National Park

11:00 AM EDT 22 September 2021
Disclaimer

This table is a summary of hourly weather conditions for the past 24 hours.
Please note that these observations might not always be representative of weather conditions over their associated marine area.

Date / Time
(EDT)
Wind(knots) Conditions Visibility(km) Pressure(kPa) Air tempC) Relative humidity(%) Dew pointC)
22 September 2021
11:00 NE 2 N/A N/A 102.7 9 87 7
10:00 NE 4 N/A N/A 102.7 5 99 5
9:00 NE 5 N/A N/A 102.7 2 99 2
8:00 NE 4 N/A N/A 102.7 2 99 1
7:00 ENE 4 N/A N/A 102.7 2 99 2
6:00 ENE 3 N/A N/A 102.7 2 98 2
5:00 NE 4 N/A N/A 102.6 3 98 3
4:00 NE 3 N/A N/A 102.6 4 98 4
3:00 ENE 3 N/A N/A 102.5 5 97 5
2:00 ENE 3 N/A N/A 102.5 5 97 5
1:00 NE 2 N/A N/A 102.6 6 95 5
0:00 calm N/A N/A 102.5 7 93 6
21 September 2021
23:00 NNE 2 N/A N/A 102.5 9 90 7
22:00 NNE 1 N/A N/A 102.5 10 86 8
21:00 NW 2 N/A N/A 102.4 11 79 7
20:00 NNE 2 N/A N/A 102.3 11 82 8
19:00 NNE 4 N/A N/A 102.2 12 77 8
18:00 N 4 N/A N/A 102.1 13 72 8
17:00 NW 3 N/A N/A 102.0 13 73 9
16:00 NNW 2 N/A N/A 101.9 13 81 9
15:00 NW 3 N/A N/A 101.8 13 78 9
14:00 NNE 4 N/A N/A 101.7 13 76 9
13:00 N 3 N/A N/A 101.5 12 80 9
12:00 N 3 N/A N/A 101.4 12 87 10
11:00 NE 3 N/A N/A 101.2 12 88 10

Zoom-in to make a selection

Map of Great Lakes - Lake Superior marine weather areas Mid Superior - 45001 East Superior - 45004 West Superior - 45006 Slate Island - 45136 Lake Of the Woods - 45148 Kenora Airport Royal Island Armstrong Airport Caribou Island Marathon Airport Pukaskwa National Park Thunder Bay Airport Welcome Island Little Flatland Island Sault Ste. Marie Airport Wawa Airport
Legend:
buoy Buoy
land station Land Station

Great Lakes - Lake Superior Area

Another Region

What we are doing

Date modified: